sensor_id;sensor_type;location;lat;lon;timestamp;temperature;humidity
31263;DHT22;17892;52.080;9.006;2023-06-14T00:00:19;15.70;55.20
31263;DHT22;17892;52.080;9.006;2023-06-14T00:02:45;15.80;54.70
31263;DHT22;17892;52.080;9.006;2023-06-14T00:05:11;15.90;55.00
31263;DHT22;17892;52.080;9.006;2023-06-14T00:07:41;16.00;54.90
31263;DHT22;17892;52.080;9.006;2023-06-14T00:10:14;16.10;55.00
31263;DHT22;17892;52.080;9.006;2023-06-14T00:12:40;16.20;54.50
31263;DHT22;17892;52.080;9.006;2023-06-14T00:15:07;16.20;54.40
31263;DHT22;17892;52.080;9.006;2023-06-14T00:17:35;16.20;54.20
31263;DHT22;17892;52.080;9.006;2023-06-14T00:20:03;16.20;54.00
31263;DHT22;17892;52.080;9.006;2023-06-14T00:22:32;16.20;53.90
31263;DHT22;17892;52.080;9.006;2023-06-14T00:24:58;16.20;53.80
31263;DHT22;17892;52.080;9.006;2023-06-14T00:27:24;16.10;53.60
31263;DHT22;17892;52.080;9.006;2023-06-14T00:29:50;16.10;54.00
31263;DHT22;17892;52.080;9.006;2023-06-14T00:32:16;16.00;53.80
31263;DHT22;17892;52.080;9.006;2023-06-14T00:34:41;15.90;53.90
31263;DHT22;17892;52.080;9.006;2023-06-14T00:37:07;15.80;54.10
31263;DHT22;17892;52.080;9.006;2023-06-14T00:39:33;15.70;54.10
31263;DHT22;17892;52.080;9.006;2023-06-14T00:42:00;15.60;54.30
31263;DHT22;17892;52.080;9.006;2023-06-14T00:44:25;15.50;54.20
31263;DHT22;17892;52.080;9.006;2023-06-14T00:46:51;15.40;54.30
31263;DHT22;17892;52.080;9.006;2023-06-14T00:49:18;15.30;54.60
31263;DHT22;17892;52.080;9.006;2023-06-14T00:51:45;15.10;54.80
31263;DHT22;17892;52.080;9.006;2023-06-14T00:54:11;15.00;54.70
31263;DHT22;17892;52.080;9.006;2023-06-14T00:56:37;15.00;54.90
31263;DHT22;17892;52.080;9.006;2023-06-14T00:59:03;14.90;54.90
31263;DHT22;17892;52.080;9.006;2023-06-14T01:01:30;14.80;55.40
31263;DHT22;17892;52.080;9.006;2023-06-14T01:03:58;14.60;55.70
31263;DHT22;17892;52.080;9.006;2023-06-14T01:06:45;14.50;55.40
31263;DHT22;17892;52.080;9.006;2023-06-14T01:09:35;14.50;58.00
31263;DHT22;17892;52.080;9.006;2023-06-14T01:12:13;14.40;57.10
31263;DHT22;17892;52.080;9.006;2023-06-14T01:14:43;14.30;56.90
31263;DHT22;17892;52.080;9.006;2023-06-14T01:17:09;14.20;55.80
31263;DHT22;17892;52.080;9.006;2023-06-14T01:19:43;14.10;56.30
31263;DHT22;17892;52.080;9.006;2023-06-14T01:22:10;14.00;56.80
31263;DHT22;17892;52.080;9.006;2023-06-14T01:24:36;13.90;56.70
31263;DHT22;17892;52.080;9.006;2023-06-14T01:27:02;13.90;56.70
31263;DHT22;17892;52.080;9.006;2023-06-14T01:29:29;13.80;56.80
31263;DHT22;17892;52.080;9.006;2023-06-14T01:32:01;13.70;56.70
31263;DHT22;17892;52.080;9.006;2023-06-14T01:34:27;13.60;56.70
31263;DHT22;17892;52.080;9.006;2023-06-14T01:36:53;13.50;56.80
31263;DHT22;17892;52.080;9.006;2023-06-14T01:39:22;13.50;57.10
31263;DHT22;17892;52.080;9.006;2023-06-14T01:41:49;13.40;59.10
31263;DHT22;17892;52.080;9.006;2023-06-14T01:44:17;13.30;56.50
31263;DHT22;17892;52.080;9.006;2023-06-14T01:46:44;13.30;57.10
31263;DHT22;17892;52.080;9.006;2023-06-14T01:49:11;13.20;57.10
31263;DHT22;17892;52.080;9.006;2023-06-14T01:51:37;13.10;57.20
31263;DHT22;17892;52.080;9.006;2023-06-14T01:54:02;13.00;57.20
31263;DHT22;17892;52.080;9.006;2023-06-14T01:56:28;13.00;57.40
31263;DHT22;17892;52.080;9.006;2023-06-14T01:58:54;12.90;57.80
31263;DHT22;17892;52.080;9.006;2023-06-14T02:01:20;12.80;57.90
31263;DHT22;17892;52.080;9.006;2023-06-14T02:03:47;12.80;58.20
31263;DHT22;17892;52.080;9.006;2023-06-14T02:06:14;12.70;58.40
31263;DHT22;17892;52.080;9.006;2023-06-14T02:08:41;12.70;58.30
31263;DHT22;17892;52.080;9.006;2023-06-14T02:11:08;12.60;58.40
31263;DHT22;17892;52.080;9.006;2023-06-14T02:13:33;12.60;58.80
31263;DHT22;17892;52.080;9.006;2023-06-14T02:16:00;12.60;58.80
31263;DHT22;17892;52.080;9.006;2023-06-14T02:18:26;12.50;58.70
31263;DHT22;17892;52.080;9.006;2023-06-14T02:20:52;12.40;59.00
31263;DHT22;17892;52.080;9.006;2023-06-14T02:23:18;12.40;59.30
31263;DHT22;17892;52.080;9.006;2023-06-14T02:25:44;12.30;59.10
31263;DHT22;17892;52.080;9.006;2023-06-14T02:28:11;12.30;59.20
31263;DHT22;17892;52.080;9.006;2023-06-14T02:30:37;12.20;59.30
31263;DHT22;17892;52.080;9.006;2023-06-14T02:33:04;12.20;59.40
31263;DHT22;17892;52.080;9.006;2023-06-14T02:35:30;12.10;59.40
31263;DHT22;17892;52.080;9.006;2023-06-14T02:37:56;12.10;60.50
31263;DHT22;17892;52.080;9.006;2023-06-14T02:40:22;12.00;60.00
31263;DHT22;17892;52.080;9.006;2023-06-14T02:42:48;12.00;60.50
31263;DHT22;17892;52.080;9.006;2023-06-14T02:45:14;11.90;60.10
31263;DHT22;17892;52.080;9.006;2023-06-14T02:47:40;11.90;60.30
31263;DHT22;17892;52.080;9.006;2023-06-14T02:50:06;11.80;60.30
31263;DHT22;17892;52.080;9.006;2023-06-14T02:52:34;11.80;60.50
31263;DHT22;17892;52.080;9.006;2023-06-14T02:54:59;11.80;60.80
31263;DHT22;17892;52.080;9.006;2023-06-14T02:57:25;11.70;60.50
31263;DHT22;17892;52.080;9.006;2023-06-14T02:59:51;11.70;60.70
31263;DHT22;17892;52.080;9.006;2023-06-14T03:02:17;11.60;60.80
31263;DHT22;17892;52.080;9.006;2023-06-14T03:04:43;11.60;61.00
31263;DHT22;17892;52.080;9.006;2023-06-14T03:07:10;11.50;61.00
31263;DHT22;17892;52.080;9.006;2023-06-14T03:09:36;11.50;61.40
31263;DHT22;17892;52.080;9.006;2023-06-14T03:12:03;11.40;61.60
31263;DHT22;17892;52.080;9.006;2023-06-14T03:14:30;11.40;61.80
31263;DHT22;17892;52.080;9.006;2023-06-14T03:16:57;11.30;61.90
31263;DHT22;17892;52.080;9.006;2023-06-14T03:19:23;11.30;62.20
31263;DHT22;17892;52.080;9.006;2023-06-14T03:21:49;11.30;62.80
31263;DHT22;17892;52.080;9.006;2023-06-14T03:24:15;11.30;62.80
31263;DHT22;17892;52.080;9.006;2023-06-14T03:26:43;11.20;62.80
31263;DHT22;17892;52.080;9.006;2023-06-14T03:29:09;11.20;62.90
31263;DHT22;17892;52.080;9.006;2023-06-14T03:31:35;11.20;63.10
31263;DHT22;17892;52.080;9.006;2023-06-14T03:34:02;11.20;63.30
31263;DHT22;17892;52.080;9.006;2023-06-14T03:36:27;11.20;64.40
31263;DHT22;17892;52.080;9.006;2023-06-14T03:38:54;11.20;64.20
31263;DHT22;17892;52.080;9.006;2023-06-14T03:41:21;11.20;64.20
31263;DHT22;17892;52.080;9.006;2023-06-14T03:43:46;11.20;64.50
31263;DHT22;17892;52.080;9.006;2023-06-14T03:46:12;11.30;64.60
31263;DHT22;17892;52.080;9.006;2023-06-14T03:48:38;11.30;64.70
31263;DHT22;17892;52.080;9.006;2023-06-14T03:51:04;11.40;65.00
31263;DHT22;17892;52.080;9.006;2023-06-14T03:53:30;11.40;65.50
31263;DHT22;17892;52.080;9.006;2023-06-14T03:55:56;11.50;65.40
31263;DHT22;17892;52.080;9.006;2023-06-14T03:58:22;11.60;65.70
31263;DHT22;17892;52.080;9.006;2023-06-14T04:00:48;11.60;65.90
31263;DHT22;17892;52.080;9.006;2023-06-14T04:03:14;11.70;66.30
31263;DHT22;17892;52.080;9.006;2023-06-14T04:05:41;11.80;66.90
31263;DHT22;17892;52.080;9.006;2023-06-14T04:08:14;11.90;67.00
31263;DHT22;17892;52.080;9.006;2023-06-14T04:10:41;12.00;66.80
31263;DHT22;17892;52.080;9.006;2023-06-14T04:13:06;12.10;67.00
31263;DHT22;17892;52.080;9.006;2023-06-14T04:15:32;12.20;67.30
31263;DHT22;17892;52.080;9.006;2023-06-14T04:17:58;12.30;67.40
31263;DHT22;17892;52.080;9.006;2023-06-14T04:20:25;12.40;67.50
31263;DHT22;17892;52.080;9.006;2023-06-14T04:22:52;12.50;67.60
31263;DHT22;17892;52.080;9.006;2023-06-14T04:25:18;12.70;68.30
31263;DHT22;17892;52.080;9.006;2023-06-14T04:27:44;12.80;68.30
31263;DHT22;17892;52.080;9.006;2023-06-14T04:30:10;12.90;68.20
31263;DHT22;17892;52.080;9.006;2023-06-14T04:32:36;13.10;68.60
31263;DHT22;17892;52.080;9.006;2023-06-14T04:35:07;13.20;68.40
31263;DHT22;17892;52.080;9.006;2023-06-14T04:37:33;13.40;69.50
31263;DHT22;17892;52.080;9.006;2023-06-14T04:40:00;13.60;68.80
31263;DHT22;17892;52.080;9.006;2023-06-14T04:42:25;13.80;69.00
31263;DHT22;17892;52.080;9.006;2023-06-14T04:44:56;14.00;69.50
31263;DHT22;17892;52.080;9.006;2023-06-14T04:47:22;14.10;69.90
31263;DHT22;17892;52.080;9.006;2023-06-14T04:49:50;14.30;69.80
31263;DHT22;17892;52.080;9.006;2023-06-14T04:52:19;14.50;69.90
31263;DHT22;17892;52.080;9.006;2023-06-14T04:54:46;14.80;70.10
31263;DHT22;17892;52.080;9.006;2023-06-14T04:57:12;15.10;70.70
31263;DHT22;17892;52.080;9.006;2023-06-14T04:59:40;15.50;71.50
31263;DHT22;17892;52.080;9.006;2023-06-14T05:02:06;16.00;71.30
31263;DHT22;17892;52.080;9.006;2023-06-14T05:04:32;16.50;71.30
31263;DHT22;17892;52.080;9.006;2023-06-14T05:06:58;17.00;70.90
31263;DHT22;17892;52.080;9.006;2023-06-14T05:09:23;17.50;71.00
31263;DHT22;17892;52.080;9.006;2023-06-14T05:11:49;18.00;69.10
31263;DHT22;17892;52.080;9.006;2023-06-14T05:14:16;18.50;67.80
31263;DHT22;17892;52.080;9.006;2023-06-14T05:16:42;18.90;66.30
31263;DHT22;17892;52.080;9.006;2023-06-14T05:19:08;19.20;65.30
31263;DHT22;17892;52.080;9.006;2023-06-14T05:21:34;19.60;64.70
31263;DHT22;17892;52.080;9.006;2023-06-14T05:24:00;19.80;64.00
31263;DHT22;17892;52.080;9.006;2023-06-14T05:26:26;20.10;63.40
31263;DHT22;17892;52.080;9.006;2023-06-14T05:28:56;20.30;62.70
31263;DHT22;17892;52.080;9.006;2023-06-14T05:31:24;20.50;61.20
31263;DHT22;17892;52.080;9.006;2023-06-14T05:33:51;20.60;60.00
31263;DHT22;17892;52.080;9.006;2023-06-14T05:36:18;20.70;60.10
31263;DHT22;17892;52.080;9.006;2023-06-14T05:38:45;20.70;59.10
31263;DHT22;17892;52.080;9.006;2023-06-14T05:41:11;20.70;59.10
31263;DHT22;17892;52.080;9.006;2023-06-14T05:43:36;20.70;59.10
31263;DHT22;17892;52.080;9.006;2023-06-14T05:46:02;20.70;59.40
31263;DHT22;17892;52.080;9.006;2023-06-14T05:48:28;20.70;59.60
31263;DHT22;17892;52.080;9.006;2023-06-14T05:50:55;20.80;59.90
31263;DHT22;17892;52.080;9.006;2023-06-14T05:53:21;21.00;59.40
31263;DHT22;17892;52.080;9.006;2023-06-14T05:55:47;21.10;58.80
31263;DHT22;17892;52.080;9.006;2023-06-14T05:58:12;21.10;58.50
31263;DHT22;17892;52.080;9.006;2023-06-14T06:00:39;21.20;57.80
31263;DHT22;17892;52.080;9.006;2023-06-14T06:03:05;21.20;57.80
31263;DHT22;17892;52.080;9.006;2023-06-14T06:05:33;21.20;57.80
31263;DHT22;17892;52.080;9.006;2023-06-14T06:07:59;21.20;57.40
31263;DHT22;17892;52.080;9.006;2023-06-14T06:10:25;21.10;57.50
31263;DHT22;17892;52.080;9.006;2023-06-14T06:12:51;21.10;57.50
31263;DHT22;17892;52.080;9.006;2023-06-14T06:15:17;21.10;57.60
31263;DHT22;17892;52.080;9.006;2023-06-14T06:17:44;21.10;57.70
31263;DHT22;17892;52.080;9.006;2023-06-14T06:20:10;21.20;57.70
31263;DHT22;17892;52.080;9.006;2023-06-14T06:22:37;21.20;57.80
31263;DHT22;17892;52.080;9.006;2023-06-14T06:25:03;21.30;58.00
31263;DHT22;17892;52.080;9.006;2023-06-14T06:27:30;21.40;57.90
31263;DHT22;17892;52.080;9.006;2023-06-14T06:29:55;21.50;57.90
31263;DHT22;17892;52.080;9.006;2023-06-14T06:32:21;21.60;57.80
31263;DHT22;17892;52.080;9.006;2023-06-14T06:34:47;21.70;57.30
31263;DHT22;17892;52.080;9.006;2023-06-14T06:37:13;21.80;57.10
31263;DHT22;17892;52.080;9.006;2023-06-14T06:39:39;21.90;57.30
31263;DHT22;17892;52.080;9.006;2023-06-14T06:42:05;22.00;57.00
31263;DHT22;17892;52.080;9.006;2023-06-14T06:44:32;22.10;56.60
31263;DHT22;17892;52.080;9.006;2023-06-14T06:46:58;22.10;56.40
31263;DHT22;17892;52.080;9.006;2023-06-14T06:49:24;22.20;56.00
31263;DHT22;17892;52.080;9.006;2023-06-14T06:52:03;22.20;55.70
31263;DHT22;17892;52.080;9.006;2023-06-14T06:54:30;22.20;55.50
31263;DHT22;17892;52.080;9.006;2023-06-14T06:56:56;22.10;55.50
31263;DHT22;17892;52.080;9.006;2023-06-14T06:59:22;22.10;55.60
31263;DHT22;17892;52.080;9.006;2023-06-14T07:01:48;22.10;55.40
31263;DHT22;17892;52.080;9.006;2023-06-14T07:04:14;22.00;55.70
31263;DHT22;17892;52.080;9.006;2023-06-14T07:06:41;22.00;55.70
31263;DHT22;17892;52.080;9.006;2023-06-14T07:09:07;22.00;56.70
31263;DHT22;17892;52.080;9.006;2023-06-14T07:11:40;22.00;55.90
31263;DHT22;17892;52.080;9.006;2023-06-14T07:14:06;22.00;55.50
31263;DHT22;17892;52.080;9.006;2023-06-14T07:16:32;22.10;55.00
31263;DHT22;17892;52.080;9.006;2023-06-14T07:18:58;22.10;55.20
31263;DHT22;17892;52.080;9.006;2023-06-14T07:21:23;22.00;55.50
31263;DHT22;17892;52.080;9.006;2023-06-14T07:23:52;22.00;55.40
31263;DHT22;17892;52.080;9.006;2023-06-14T07:26:18;22.00;55.50
31263;DHT22;17892;52.080;9.006;2023-06-14T07:28:44;22.00;55.60
31263;DHT22;17892;52.080;9.006;2023-06-14T07:31:13;22.00;55.40
31263;DHT22;17892;52.080;9.006;2023-06-14T07:33:40;22.10;55.50
31263;DHT22;17892;52.080;9.006;2023-06-14T07:36:06;22.20;56.00
31263;DHT22;17892;52.080;9.006;2023-06-14T07:38:32;22.20;56.00
31263;DHT22;17892;52.080;9.006;2023-06-14T07:40:58;22.40;56.20
31263;DHT22;17892;52.080;9.006;2023-06-14T07:43:23;22.50;55.80
31263;DHT22;17892;52.080;9.006;2023-06-14T07:45:49;22.70;56.00
31263;DHT22;17892;52.080;9.006;2023-06-14T07:48:15;22.80;55.60
31263;DHT22;17892;52.080;9.006;2023-06-14T07:50:40;23.00;55.10
31263;DHT22;17892;52.080;9.006;2023-06-14T07:53:06;23.00;54.50
31263;DHT22;17892;52.080;9.006;2023-06-14T07:55:32;23.10;54.80
31263;DHT22;17892;52.080;9.006;2023-06-14T07:57:58;23.20;54.70
31263;DHT22;17892;52.080;9.006;2023-06-14T08:00:24;23.30;54.80
31263;DHT22;17892;52.080;9.006;2023-06-14T08:02:50;23.40;54.30
31263;DHT22;17892;52.080;9.006;2023-06-14T08:05:17;23.40;53.70
31263;DHT22;17892;52.080;9.006;2023-06-14T08:07:43;23.50;53.80
31263;DHT22;17892;52.080;9.006;2023-06-14T08:10:09;23.50;54.10
31263;DHT22;17892;52.080;9.006;2023-06-14T08:12:35;23.50;53.50
31263;DHT22;17892;52.080;9.006;2023-06-14T08:15:02;23.60;53.70
31263;DHT22;17892;52.080;9.006;2023-06-14T08:17:28;23.70;54.00
31263;DHT22;17892;52.080;9.006;2023-06-14T08:19:54;23.80;53.50
31263;DHT22;17892;52.080;9.006;2023-06-14T08:22:22;23.90;53.50
31263;DHT22;17892;52.080;9.006;2023-06-14T08:24:50;24.10;53.20
31263;DHT22;17892;52.080;9.006;2023-06-14T08:27:16;24.10;52.60
31263;DHT22;17892;52.080;9.006;2023-06-14T08:29:42;24.10;52.50
31263;DHT22;17892;52.080;9.006;2023-06-14T08:32:08;24.10;51.20
31263;DHT22;17892;52.080;9.006;2023-06-14T08:34:34;24.10;51.80
31263;DHT22;17892;52.080;9.006;2023-06-14T08:37:00;24.00;52.50
31263;DHT22;17892;52.080;9.006;2023-06-14T08:39:26;24.10;53.00
31263;DHT22;17892;52.080;9.006;2023-06-14T08:41:52;24.30;53.10
31263;DHT22;17892;52.080;9.006;2023-06-14T08:44:18;24.50;52.50
31263;DHT22;17892;52.080;9.006;2023-06-14T08:46:45;24.60;52.20
31263;DHT22;17892;52.080;9.006;2023-06-14T08:49:13;24.70;51.60
31263;DHT22;17892;52.080;9.006;2023-06-14T08:51:43;24.90;52.50
31263;DHT22;17892;52.080;9.006;2023-06-14T08:54:11;25.00;51.70
31263;DHT22;17892;52.080;9.006;2023-06-14T08:56:40;25.20;52.20
31263;DHT22;17892;52.080;9.006;2023-06-14T08:59:08;25.30;50.60
31263;DHT22;17892;52.080;9.006;2023-06-14T09:01:36;25.40;50.90
31263;DHT22;17892;52.080;9.006;2023-06-14T09:04:02;25.50;50.60
31263;DHT22;17892;52.080;9.006;2023-06-14T09:06:30;25.60;50.60
31263;DHT22;17892;52.080;9.006;2023-06-14T09:08:57;25.60;49.80
31263;DHT22;17892;52.080;9.006;2023-06-14T09:11:23;25.60;49.00
31263;DHT22;17892;52.080;9.006;2023-06-14T09:13:50;25.40;48.10
31263;DHT22;17892;52.080;9.006;2023-06-14T09:16:16;25.30;49.10
31263;DHT22;17892;52.080;9.006;2023-06-14T09:18:43;25.20;49.70
31263;DHT22;17892;52.080;9.006;2023-06-14T09:21:11;25.20;49.60
31263;DHT22;17892;52.080;9.006;2023-06-14T09:23:42;25.30;50.10
31263;DHT22;17892;52.080;9.006;2023-06-14T09:26:13;25.40;49.40
31263;DHT22;17892;52.080;9.006;2023-06-14T09:28:44;25.50;49.10
31263;DHT22;17892;52.080;9.006;2023-06-14T09:31:15;25.60;50.00
31263;DHT22;17892;52.080;9.006;2023-06-14T09:33:48;25.80;50.80
31263;DHT22;17892;52.080;9.006;2023-06-14T09:36:25;26.10;51.40
31263;DHT22;17892;52.080;9.006;2023-06-14T09:38:55;26.50;50.20
31263;DHT22;17892;52.080;9.006;2023-06-14T09:43:59;27.10;49.10
31263;DHT22;17892;52.080;9.006;2023-06-14T09:46:27;27.40;48.90
31263;DHT22;17892;52.080;9.006;2023-06-14T09:48:55;27.50;48.00
31263;DHT22;17892;52.080;9.006;2023-06-14T09:51:23;27.60;47.20
31263;DHT22;17892;52.080;9.006;2023-06-14T09:53:49;27.70;46.80
31263;DHT22;17892;52.080;9.006;2023-06-14T09:56:39;27.70;47.50
31263;DHT22;17892;52.080;9.006;2023-06-14T09:59:09;27.70;46.20
31263;DHT22;17892;52.080;9.006;2023-06-14T10:01:42;27.60;47.50
31263;DHT22;17892;52.080;9.006;2023-06-14T10:04:10;27.70;47.20
31263;DHT22;17892;52.080;9.006;2023-06-14T10:06:37;27.80;47.60
31263;DHT22;17892;52.080;9.006;2023-06-14T10:09:08;27.80;44.60
31263;DHT22;17892;52.080;9.006;2023-06-14T10:11:36;27.80;44.60
31263;DHT22;17892;52.080;9.006;2023-06-14T10:14:04;27.70;45.00
31263;DHT22;17892;52.080;9.006;2023-06-14T10:16:34;27.60;45.60
31263;DHT22;17892;52.080;9.006;2023-06-14T10:21:57;27.50;45.50
31263;DHT22;17892;52.080;9.006;2023-06-14T10:24:29;27.60;45.80
31263;DHT22;17892;52.080;9.006;2023-06-14T10:26:58;27.70;45.60
31263;DHT22;17892;52.080;9.006;2023-06-14T10:29:28;27.90;46.60
31263;DHT22;17892;52.080;9.006;2023-06-14T10:31:58;28.10;46.50
31263;DHT22;17892;52.080;9.006;2023-06-14T10:34:31;28.30;45.70
31263;DHT22;17892;52.080;9.006;2023-06-14T10:37:04;28.50;45.50
31263;DHT22;17892;52.080;9.006;2023-06-14T10:39:44;28.40;44.00
31263;DHT22;17892;52.080;9.006;2023-06-14T10:42:11;28.20;44.10
31263;DHT22;17892;52.080;9.006;2023-06-14T10:49:52;27.90;45.20
31263;DHT22;17892;52.080;9.006;2023-06-14T10:52:22;27.80;45.00
31263;DHT22;17892;52.080;9.006;2023-06-14T10:55:16;27.70;45.50
31263;DHT22;17892;52.080;9.006;2023-06-14T10:57:44;27.60;45.80
31263;DHT22;17892;52.080;9.006;2023-06-14T11:00:12;27.60;45.70
31263;DHT22;17892;52.080;9.006;2023-06-14T11:08:33;27.40;45.30
31263;DHT22;17892;52.080;9.006;2023-06-14T11:11:07;27.30;46.10
31263;DHT22;17892;52.080;9.006;2023-06-14T11:13:36;27.30;46.50
31263;DHT22;17892;52.080;9.006;2023-06-14T11:16:13;27.30;46.60
31263;DHT22;17892;52.080;9.006;2023-06-14T11:18:40;27.30;47.00
31263;DHT22;17892;52.080;9.006;2023-06-14T11:21:06;27.30;46.90
31263;DHT22;17892;52.080;9.006;2023-06-14T11:23:34;27.30;46.30
31263;DHT22;17892;52.080;9.006;2023-06-14T11:26:00;27.30;46.10
31263;DHT22;17892;52.080;9.006;2023-06-14T11:28:37;27.30;45.90
31263;DHT22;17892;52.080;9.006;2023-06-14T11:31:06;27.20;46.40
31263;DHT22;17892;52.080;9.006;2023-06-14T11:33:33;27.30;46.60
31263;DHT22;17892;52.080;9.006;2023-06-14T11:36:02;27.30;46.60
31263;DHT22;17892;52.080;9.006;2023-06-14T11:38:29;27.40;46.60
31263;DHT22;17892;52.080;9.006;2023-06-14T11:40:59;27.50;45.60
31263;DHT22;17892;52.080;9.006;2023-06-14T11:43:25;27.50;44.50
31263;DHT22;17892;52.080;9.006;2023-06-14T11:45:52;27.50;45.00
31263;DHT22;17892;52.080;9.006;2023-06-14T11:48:18;27.50;44.10
31263;DHT22;17892;52.080;9.006;2023-06-14T11:50:44;27.40;44.30
31263;DHT22;17892;52.080;9.006;2023-06-14T11:53:10;27.30;44.20
31263;DHT22;17892;52.080;9.006;2023-06-14T11:55:39;27.10;45.10
31263;DHT22;17892;52.080;9.006;2023-06-14T11:58:06;27.10;45.00
31263;DHT22;17892;52.080;9.006;2023-06-14T12:00:32;27.10;45.70
31263;DHT22;17892;52.080;9.006;2023-06-14T12:02:58;27.20;45.90
31263;DHT22;17892;52.080;9.006;2023-06-14T12:05:25;27.40;46.10
31263;DHT22;17892;52.080;9.006;2023-06-14T12:08:02;27.60;45.60
31263;DHT22;17892;52.080;9.006;2023-06-14T12:10:39;27.80;44.90
31263;DHT22;17892;52.080;9.006;2023-06-14T12:13:09;27.80;44.60
31263;DHT22;17892;52.080;9.006;2023-06-14T12:15:35;27.70;43.90
31263;DHT22;17892;52.080;9.006;2023-06-14T12:18:04;27.50;43.60
31263;DHT22;17892;52.080;9.006;2023-06-14T12:20:32;27.30;44.10
31263;DHT22;17892;52.080;9.006;2023-06-14T12:23:03;27.30;45.50
31263;DHT22;17892;52.080;9.006;2023-06-14T12:25:32;27.50;46.20
31263;DHT22;17892;52.080;9.006;2023-06-14T12:28:07;27.70;46.40
31263;DHT22;17892;52.080;9.006;2023-06-14T12:30:35;28.00;45.80
31263;DHT22;17892;52.080;9.006;2023-06-14T12:33:02;28.30;45.80
31263;DHT22;17892;52.080;9.006;2023-06-14T12:35:28;28.60;45.90
31263;DHT22;17892;52.080;9.006;2023-06-14T12:37:54;28.80;44.90
31263;DHT22;17892;52.080;9.006;2023-06-14T12:40:19;29.00;44.40
31263;DHT22;17892;52.080;9.006;2023-06-14T12:42:45;29.10;44.00
31263;DHT22;17892;52.080;9.006;2023-06-14T12:45:12;29.20;43.90
31263;DHT22;17892;52.080;9.006;2023-06-14T12:47:38;29.20;43.20
31263;DHT22;17892;52.080;9.006;2023-06-14T12:50:05;29.30;43.00
31263;DHT22;17892;52.080;9.006;2023-06-14T12:52:33;29.40;42.80
31263;DHT22;17892;52.080;9.006;2023-06-14T12:55:05;29.20;41.80
31263;DHT22;17892;52.080;9.006;2023-06-14T12:57:32;29.10;42.30
31263;DHT22;17892;52.080;9.006;2023-06-14T13:00:00;29.00;42.50
31263;DHT22;17892;52.080;9.006;2023-06-14T13:02:25;29.00;43.30
31263;DHT22;17892;52.080;9.006;2023-06-14T13:04:51;29.00;43.20
31263;DHT22;17892;52.080;9.006;2023-06-14T13:07:17;29.10;42.80
31263;DHT22;17892;52.080;9.006;2023-06-14T13:09:43;29.20;43.30
31263;DHT22;17892;52.080;9.006;2023-06-14T13:12:10;29.30;43.60
31263;DHT22;17892;52.080;9.006;2023-06-14T13:14:37;29.50;42.80
31263;DHT22;17892;52.080;9.006;2023-06-14T13:17:04;29.40;41.90
31263;DHT22;17892;52.080;9.006;2023-06-14T13:19:31;29.30;41.70
31263;DHT22;17892;52.080;9.006;2023-06-14T13:21:56;29.20;41.40
31263;DHT22;17892;52.080;9.006;2023-06-14T13:24:22;28.90;41.40
31263;DHT22;17892;52.080;9.006;2023-06-14T13:26:47;28.70;42.10
31263;DHT22;17892;52.080;9.006;2023-06-14T13:29:13;28.50;43.10
31263;DHT22;17892;52.080;9.006;2023-06-14T13:31:39;28.40;43.60
31263;DHT22;17892;52.080;9.006;2023-06-14T13:34:06;28.50;44.00
31263;DHT22;17892;52.080;9.006;2023-06-14T13:36:31;28.70;44.50
31263;DHT22;17892;52.080;9.006;2023-06-14T13:38:57;28.80;43.20
31263;DHT22;17892;52.080;9.006;2023-06-14T13:41:26;28.90;42.90
31263;DHT22;17892;52.080;9.006;2023-06-14T13:43:57;29.00;43.10
31263;DHT22;17892;52.080;9.006;2023-06-14T13:46:24;29.10;43.90
31263;DHT22;17892;52.080;9.006;2023-06-14T13:48:49;29.20;43.40
31263;DHT22;17892;52.080;9.006;2023-06-14T13:51:15;29.40;43.40
31263;DHT22;17892;52.080;9.006;2023-06-14T13:53:43;29.50;43.00
31263;DHT22;17892;52.080;9.006;2023-06-14T13:56:10;29.60;42.50
31263;DHT22;17892;52.080;9.006;2023-06-14T13:58:37;29.40;41.80
31263;DHT22;17892;52.080;9.006;2023-06-14T14:01:03;29.20;41.80
31263;DHT22;17892;52.080;9.006;2023-06-14T14:03:29;29.00;42.60
31263;DHT22;17892;52.080;9.006;2023-06-14T14:05:55;29.00;43.30
31263;DHT22;17892;52.080;9.006;2023-06-14T14:08:21;29.10;43.80
31263;DHT22;17892;52.080;9.006;2023-06-14T14:10:47;29.20;43.20
31263;DHT22;17892;52.080;9.006;2023-06-14T14:13:13;29.30;43.30
31263;DHT22;17892;52.080;9.006;2023-06-14T14:15:38;29.50;43.50
31263;DHT22;17892;52.080;9.006;2023-06-14T14:18:04;29.80;43.50
31263;DHT22;17892;52.080;9.006;2023-06-14T14:20:31;30.00;43.30
31263;DHT22;17892;52.080;9.006;2023-06-14T14:22:57;30.20;43.00
31263;DHT22;17892;52.080;9.006;2023-06-14T14:25:22;30.40;42.50
31263;DHT22;17892;52.080;9.006;2023-06-14T14:27:48;30.50;41.90
31263;DHT22;17892;52.080;9.006;2023-06-14T14:30:14;30.50;42.40
31263;DHT22;17892;52.080;9.006;2023-06-14T14:32:42;30.50;41.70
31263;DHT22;17892;52.080;9.006;2023-06-14T14:35:08;30.50;41.50
31263;DHT22;17892;52.080;9.006;2023-06-14T14:37:34;30.50;41.10
31263;DHT22;17892;52.080;9.006;2023-06-14T14:40:00;30.30;40.80
31263;DHT22;17892;52.080;9.006;2023-06-14T14:42:25;30.10;41.40
31263;DHT22;17892;52.080;9.006;2023-06-14T14:44:52;29.90;41.60
31263;DHT22;17892;52.080;9.006;2023-06-14T14:47:18;29.90;42.00
31263;DHT22;17892;52.080;9.006;2023-06-14T14:49:43;29.70;41.70
31263;DHT22;17892;52.080;9.006;2023-06-14T14:52:09;29.60;41.90
31263;DHT22;17892;52.080;9.006;2023-06-14T14:54:35;29.50;42.10
31263;DHT22;17892;52.080;9.006;2023-06-14T14:57:01;29.40;42.40
31263;DHT22;17892;52.080;9.006;2023-06-14T14:59:27;29.50;42.90
31263;DHT22;17892;52.080;9.006;2023-06-14T15:01:53;29.70;43.10
31263;DHT22;17892;52.080;9.006;2023-06-14T15:04:18;29.70;42.70
31263;DHT22;17892;52.080;9.006;2023-06-14T15:06:44;29.70;42.50
31263;DHT22;17892;52.080;9.006;2023-06-14T15:09:10;29.70;42.50
31263;DHT22;17892;52.080;9.006;2023-06-14T15:11:36;29.70;43.20
31263;DHT22;17892;52.080;9.006;2023-06-14T15:14:01;29.70;42.70
31263;DHT22;17892;52.080;9.006;2023-06-14T15:16:27;29.60;41.90
31263;DHT22;17892;52.080;9.006;2023-06-14T15:18:53;29.50;42.00
31263;DHT22;17892;52.080;9.006;2023-06-14T15:21:18;29.40;41.50
31263;DHT22;17892;52.080;9.006;2023-06-14T15:23:47;29.40;41.70
31263;DHT22;17892;52.080;9.006;2023-06-14T15:26:13;29.40;42.10
31263;DHT22;17892;52.080;9.006;2023-06-14T15:28:39;29.40;42.30
31263;DHT22;17892;52.080;9.006;2023-06-14T15:31:05;29.30;42.40
31263;DHT22;17892;52.080;9.006;2023-06-14T15:33:30;29.30;42.30
31263;DHT22;17892;52.080;9.006;2023-06-14T15:35:57;29.40;42.30
31263;DHT22;17892;52.080;9.006;2023-06-14T15:38:22;29.40;42.20
31263;DHT22;17892;52.080;9.006;2023-06-14T15:40:48;29.30;41.70
31263;DHT22;17892;52.080;9.006;2023-06-14T15:43:14;29.20;41.90
31263;DHT22;17892;52.080;9.006;2023-06-14T15:45:40;29.20;42.50